createdAt,value
2023-05-19T00:01:25.216Z,3.20
2023-05-19T00:03:57.915Z,3.80
2023-05-19T00:06:34.625Z,3.90
2023-05-19T00:09:05.686Z,3.70
2023-05-19T00:11:36.480Z,3.40
2023-05-19T00:16:36.544Z,3.50
2023-05-19T00:19:06.636Z,3.40
2023-05-19T00:21:34.791Z,3.70
2023-05-19T00:24:02.886Z,3.70
2023-05-19T00:26:31.208Z,3.50
2023-05-19T00:28:59.411Z,3.60
2023-05-19T00:31:27.614Z,3.50
2023-05-19T00:33:55.832Z,3.70
2023-05-19T00:36:24.758Z,3.20
2023-05-19T00:38:53.064Z,3.50
2023-05-19T00:41:21.268Z,3.20
2023-05-19T00:43:50.351Z,3.60
2023-05-19T00:46:19.912Z,3.00
2023-05-19T00:48:48.119Z,3.30
2023-05-19T00:51:17.368Z,3.60
2023-05-19T00:53:49.504Z,3.50
2023-05-19T00:56:18.720Z,3.20
2023-05-19T00:58:47.343Z,3.30
2023-05-19T01:01:17.470Z,3.80
2023-05-19T01:03:47.366Z,3.80
2023-05-19T01:06:15.785Z,3.50
2023-05-19T01:08:43.986Z,3.40
2023-05-19T01:11:12.096Z,3.40
2023-05-19T01:13:42.117Z,3.40
2023-05-19T01:16:32.335Z,3.30
2023-05-19T01:19:31.195Z,3.60
2023-05-19T01:22:27.388Z,3.60
2023-05-19T01:25:34.488Z,4.00
2023-05-19T01:28:36.080Z,3.30
2023-05-19T01:31:06.374Z,3.60
2023-05-19T01:33:34.989Z,3.80
2023-05-19T01:36:04.376Z,3.30
2023-05-19T01:38:34.297Z,4.00
2023-05-19T01:41:04.497Z,4.00
2023-05-19T01:43:33.874Z,3.80
2023-05-19T01:46:02.796Z,3.90
2023-05-19T01:48:31.206Z,3.60
2023-05-19T01:50:59.807Z,3.70
2023-05-19T01:53:27.992Z,3.80
2023-05-19T01:55:57.420Z,3.50
2023-05-19T01:58:45.812Z,3.90
2023-05-19T02:01:41.519Z,3.70
2023-05-19T02:04:24.891Z,3.60
2023-05-19T02:07:03.156Z,3.90
2023-05-19T02:09:56.387Z,3.80
2023-05-19T02:12:31.829Z,3.90
2023-05-19T02:15:16.494Z,4.40
2023-05-19T02:17:51.991Z,4.40
2023-05-19T02:20:22.460Z,4.20
2023-05-19T02:22:50.836Z,3.60
2023-05-19T02:25:18.990Z,3.50
2023-05-19T02:27:49.206Z,3.50
2023-05-19T02:30:17.270Z,3.90
2023-05-19T02:32:46.977Z,3.90
2023-05-19T02:35:15.241Z,4.30
2023-05-19T02:37:43.718Z,4.10
2023-05-19T02:40:12.108Z,4.40
2023-05-19T02:42:40.178Z,4.00
2023-05-19T02:45:08.766Z,3.50
2023-05-19T02:47:37.318Z,3.90
2023-05-19T02:50:06.475Z,3.50
2023-05-19T02:52:34.559Z,3.30
2023-05-19T02:55:02.649Z,3.90
2023-05-19T02:57:31.912Z,4.10
2023-05-19T03:00:00.194Z,3.80
2023-05-19T03:02:28.378Z,3.10
2023-05-19T03:04:56.572Z,3.80
2023-05-19T03:07:25.518Z,3.80
2023-05-19T03:09:53.776Z,3.20
2023-05-19T03:12:22.055Z,4.00
2023-05-19T03:14:50.402Z,4.40
2023-05-19T03:17:18.512Z,3.80
2023-05-19T03:19:46.649Z,4.10
2023-05-19T03:22:14.699Z,4.20
2023-05-19T03:24:42.788Z,4.40
2023-05-19T03:27:12.542Z,3.90
2023-05-19T03:29:40.856Z,3.80
2023-05-19T03:32:09.163Z,4.10
2023-05-19T03:34:37.354Z,4.20
2023-05-19T03:37:05.471Z,3.70
2023-05-19T03:39:33.597Z,3.50
2023-05-19T03:42:01.739Z,4.10
2023-05-19T03:44:29.954Z,3.90
2023-05-19T03:46:58.120Z,3.50
2023-05-19T03:49:26.220Z,4.40
2023-05-19T03:51:54.641Z,4.10
2023-05-19T03:54:23.038Z,4.10
2023-05-19T03:56:51.537Z,3.80
2023-05-19T03:59:19.909Z,3.70
2023-05-19T04:01:48.945Z,4.40
2023-05-19T04:04:17.213Z,4.30
2023-05-19T04:06:45.850Z,3.50
2023-05-19T04:09:15.521Z,3.70
2023-05-19T04:11:43.637Z,3.50
2023-05-19T04:14:11.779Z,3.80
2023-05-19T04:16:40.516Z,3.30
2023-05-19T04:19:08.712Z,3.60
2023-05-19T04:21:37.072Z,3.60
2023-05-19T04:24:06.722Z,4.20
2023-05-19T04:26:35.120Z,4.00
2023-05-19T04:29:04.731Z,4.00
2023-05-19T04:31:34.579Z,4.60
2023-05-19T04:34:02.823Z,4.20
2023-05-19T04:36:31.304Z,4.10
2023-05-19T04:39:02.695Z,3.90
2023-05-19T04:41:30.844Z,3.90
2023-05-19T04:43:58.990Z,3.80
2023-05-19T04:46:30.218Z,3.80
2023-05-19T04:49:01.415Z,4.20
2023-05-19T04:51:31.613Z,4.10
2023-05-19T04:53:59.777Z,4.90
2023-05-19T04:56:29.070Z,4.50
2023-05-19T04:58:57.241Z,3.60
2023-05-19T05:01:26.468Z,4.10
2023-05-19T05:03:55.881Z,4.00
2023-05-19T05:06:24.103Z,3.90
2023-05-19T05:08:53.268Z,3.80
2023-05-19T05:11:22.343Z,3.90
2023-05-19T05:13:50.855Z,3.70
2023-05-19T05:16:19.207Z,3.80
2023-05-19T05:18:47.602Z,3.70
2023-05-19T05:21:16.043Z,3.70
2023-05-19T05:23:44.488Z,3.40
2023-05-19T05:26:19.968Z,3.30
2023-05-19T05:28:48.184Z,3.50
2023-05-19T05:31:16.405Z,3.50
2023-05-19T05:33:44.960Z,3.00
2023-05-19T05:36:13.901Z,3.10
2023-05-19T05:38:41.977Z,3.60
2023-05-19T05:41:10.154Z,3.10
2023-05-19T05:43:38.309Z,3.40
2023-05-19T05:46:06.532Z,3.50
2023-05-19T05:48:35.140Z,3.70
2023-05-19T05:51:03.614Z,3.50
2023-05-19T05:53:37.220Z,3.60
2023-05-19T05:56:05.737Z,3.30
2023-05-19T05:58:37.223Z,3.20
2023-05-19T06:01:05.707Z,2.80
2023-05-19T06:03:34.276Z,3.00
2023-05-19T06:06:02.477Z,3.30
2023-05-19T06:08:30.651Z,3.30
2023-05-19T06:10:58.983Z,3.10
2023-05-19T06:13:27.226Z,3.00
2023-05-19T06:15:55.456Z,3.00
2023-05-19T06:18:23.689Z,2.80
2023-05-19T06:20:51.870Z,3.30
2023-05-19T06:23:19.991Z,3.30
2023-05-19T06:25:48.132Z,2.80
2023-05-19T06:28:16.239Z,2.90
2023-05-19T06:30:44.421Z,3.10
2023-05-19T06:33:12.636Z,2.90
2023-05-19T06:35:40.843Z,3.00
2023-05-19T06:38:08.952Z,2.90
2023-05-19T06:40:37.393Z,2.60
2023-05-19T06:43:05.719Z,2.90
2023-05-19T06:45:33.828Z,2.60
2023-05-19T06:48:02.109Z,2.50
2023-05-19T06:50:30.311Z,2.90
2023-05-19T06:52:58.580Z,2.80
2023-05-19T06:55:26.754Z,2.80
2023-05-19T06:57:54.989Z,2.50
2023-05-19T07:00:24.221Z,2.60
2023-05-19T07:02:52.633Z,2.50
2023-05-19T07:05:21.224Z,2.70
2023-05-19T07:07:49.452Z,2.60
2023-05-19T07:10:17.594Z,2.40
2023-05-19T07:12:45.834Z,2.70
2023-05-19T07:15:13.999Z,2.40
2023-05-19T07:17:42.124Z,2.80
2023-05-19T07:20:10.577Z,2.10
2023-05-19T07:22:41.785Z,2.80
2023-05-19T07:25:10.307Z,2.40
2023-05-19T07:27:38.492Z,2.60
2023-05-19T07:30:07.285Z,2.40
2023-05-19T07:32:35.410Z,3.20
2023-05-19T07:35:03.755Z,2.50
2023-05-19T07:37:31.848Z,2.60
2023-05-19T07:40:00.012Z,2.40
2023-05-19T07:42:28.193Z,2.60
2023-05-19T07:44:56.323Z,2.60
2023-05-19T07:47:24.449Z,2.50
2023-05-19T07:49:52.588Z,2.70
2023-05-19T07:52:20.752Z,2.90
2023-05-19T07:54:48.969Z,3.00
2023-05-19T07:57:17.051Z,3.20
2023-05-19T07:59:45.529Z,2.80
2023-05-19T08:02:13.860Z,3.20
2023-05-19T08:04:42.167Z,3.10
2023-05-19T08:07:10.318Z,3.30
2023-05-19T08:09:38.403Z,3.30
2023-05-19T08:12:06.664Z,2.70
2023-05-19T08:14:35.126Z,3.00
2023-05-19T08:17:03.310Z,3.40
2023-05-19T08:19:31.661Z,3.80
2023-05-19T08:22:01.369Z,4.60
2023-05-19T08:24:33.961Z,3.10
2023-05-19T08:27:02.087Z,3.20
2023-05-19T08:29:30.704Z,3.60
2023-05-19T08:31:58.857Z,3.60
2023-05-19T08:34:26.975Z,3.30
2023-05-19T08:36:57.914Z,3.00
2023-05-19T08:39:29.116Z,3.40
2023-05-19T08:41:57.484Z,2.80
2023-05-19T08:44:25.627Z,3.20
2023-05-19T08:46:56.229Z,3.40
2023-05-19T08:49:28.481Z,3.40
2023-05-19T08:52:11.471Z,3.60
2023-05-19T08:55:13.345Z,3.20
2023-05-19T08:57:42.037Z,3.20
2023-05-19T09:00:12.340Z,3.30
2023-05-19T09:05:19.519Z,3.30
2023-05-19T09:07:48.622Z,3.50
2023-05-19T09:10:16.924Z,3.20
2023-05-19T09:12:47.768Z,3.10
2023-05-19T09:15:19.548Z,2.80
2023-05-19T09:17:50.478Z,3.30
2023-05-19T09:20:18.650Z,3.20
2023-05-19T09:22:47.649Z,3.10
2023-05-19T09:25:19.596Z,3.20
2023-05-19T09:27:49.144Z,3.30
2023-05-19T09:30:18.295Z,3.20
2023-05-19T09:32:47.257Z,3.30
2023-05-19T09:35:20.375Z,3.00
2023-05-19T09:37:48.487Z,3.60
2023-05-19T09:40:16.985Z,3.20
2023-05-19T09:42:45.201Z,3.30
2023-05-19T09:45:13.643Z,3.40
2023-05-19T09:47:42.415Z,2.90
2023-05-19T09:50:12.157Z,3.00
2023-05-19T09:52:43.821Z,2.80
2023-05-19T09:55:13.162Z,3.20
2023-05-19T09:57:41.671Z,3.30
2023-05-19T10:00:19.908Z,3.10
2023-05-19T10:02:50.452Z,3.10
2023-05-19T10:05:20.617Z,3.00
2023-05-19T10:10:22.239Z,2.60
2023-05-19T10:12:50.362Z,3.00
2023-05-19T10:15:22.191Z,3.00
2023-05-19T10:17:51.678Z,2.70
2023-05-19T10:20:20.041Z,2.60
2023-05-19T10:22:48.878Z,3.20
2023-05-19T10:25:20.023Z,3.20
2023-05-19T10:28:01.125Z,3.10
2023-05-19T10:30:34.789Z,2.80
2023-05-19T10:33:05.277Z,3.30
2023-05-19T10:35:54.996Z,2.90
2023-05-19T10:38:35.316Z,3.30
2023-05-19T10:44:02.665Z,3.50
2023-05-19T10:46:31.122Z,2.90
2023-05-19T10:48:59.626Z,3.50
2023-05-19T10:51:32.448Z,3.20
2023-05-19T10:54:09.399Z,2.80
2023-05-19T10:56:42.661Z,2.70
2023-05-19T10:59:31.905Z,4.00
2023-05-19T11:02:08.427Z,2.80
2023-05-19T11:04:53.671Z,3.20
2023-05-19T11:07:22.530Z,4.00
2023-05-19T11:09:54.230Z,3.60
2023-05-19T11:12:24.657Z,3.60
2023-05-19T11:14:54.639Z,3.40
2023-05-19T11:17:25.764Z,3.30
2023-05-19T11:19:58.816Z,2.80
2023-05-19T11:22:28.107Z,3.30
2023-05-19T11:24:56.657Z,3.00
2023-05-19T11:27:28.967Z,3.40
2023-05-19T11:30:02.295Z,3.20
2023-05-19T11:32:34.001Z,3.00
2023-05-19T11:35:02.868Z,3.20
2023-05-19T11:37:34.900Z,3.20
2023-05-19T11:40:09.938Z,2.90
2023-05-19T11:42:38.088Z,3.20
2023-05-19T11:45:06.955Z,3.50
2023-05-19T11:47:42.868Z,3.40
2023-05-19T11:50:20.659Z,3.10
2023-05-19T11:52:49.105Z,3.20
2023-05-19T11:55:18.383Z,3.20
2023-05-19T11:58:03.994Z,3.50
2023-05-19T12:00:38.181Z,3.40
2023-05-19T12:03:07.596Z,3.80
2023-05-19T12:05:46.064Z,3.20
2023-05-19T12:08:16.764Z,3.40
2023-05-19T12:10:49.963Z,3.50
2023-05-19T12:13:18.210Z,3.30
2023-05-19T12:15:46.421Z,3.30
2023-05-19T12:18:14.564Z,3.30
2023-05-19T12:20:43.536Z,3.40
2023-05-19T12:23:12.429Z,3.90
2023-05-19T12:25:40.863Z,3.10
2023-05-19T12:28:09.045Z,3.30
2023-05-19T12:30:37.422Z,3.30
2023-05-19T12:33:06.084Z,3.80
2023-05-19T12:35:37.707Z,3.50
2023-05-19T12:38:06.860Z,3.20
2023-05-19T12:40:36.475Z,3.40
2023-05-19T12:43:05.679Z,3.50
2023-05-19T12:45:37.528Z,3.30
2023-05-19T12:48:11.385Z,3.70
2023-05-19T12:50:39.622Z,3.30
2023-05-19T12:53:14.767Z,4.10
2023-05-19T12:55:44.957Z,3.40
2023-05-19T13:00:47.236Z,3.50
2023-05-19T13:03:20.913Z,3.30
2023-05-19T13:05:50.979Z,4.00
2023-05-19T13:08:21.877Z,3.30
2023-05-19T13:10:50.399Z,3.80
2023-05-19T13:13:18.842Z,3.90
2023-05-19T13:15:50.578Z,3.60
2023-05-19T13:18:18.995Z,3.80
2023-05-19T13:20:50.232Z,3.90
2023-05-19T13:23:18.853Z,3.30
2023-05-19T13:25:47.375Z,3.60
2023-05-19T13:28:15.886Z,4.20
2023-05-19T13:30:45.865Z,3.60
2023-05-19T13:35:42.222Z,4.00
2023-05-19T13:38:10.860Z,3.40
2023-05-19T13:40:40.149Z,2.90
2023-05-19T13:43:09.878Z,2.80
2023-05-19T13:45:38.317Z,2.90
2023-05-19T13:48:07.662Z,2.70
2023-05-19T13:50:36.299Z,2.90
2023-05-19T13:53:04.752Z,2.80
2023-05-19T13:55:33.357Z,3.10
2023-05-19T13:58:01.578Z,2.90
2023-05-19T14:00:31.433Z,2.60
2023-05-19T14:03:00.631Z,2.80
2023-05-19T14:05:29.202Z,3.00
2023-05-19T14:07:58.240Z,2.90
2023-05-19T14:10:26.788Z,2.90
2023-05-19T14:13:25.972Z,2.70
2023-05-19T14:15:44.580Z,2.80
2023-05-19T14:18:12.836Z,3.10
2023-05-19T14:20:41.710Z,2.90
2023-05-19T14:23:09.901Z,2.90
2023-05-19T14:25:37.996Z,3.40
2023-05-19T14:28:06.205Z,3.10
2023-05-19T14:30:34.511Z,2.80
2023-05-19T14:33:02.873Z,2.80
2023-05-19T14:35:31.120Z,3.00
2023-05-19T14:37:59.250Z,3.00
2023-05-19T14:40:27.401Z,2.90
2023-05-19T14:42:55.490Z,2.60
2023-05-19T14:45:23.608Z,2.60
2023-05-19T14:47:52.764Z,2.90
2023-05-19T14:50:21.136Z,2.80
2023-05-19T14:52:49.269Z,3.30
2023-05-19T14:55:17.471Z,3.10
2023-05-19T14:57:46.164Z,3.00
2023-05-19T15:00:14.678Z,3.00
2023-05-19T15:02:43.137Z,2.90
2023-05-19T15:05:11.877Z,2.50
2023-05-19T15:07:40.075Z,2.80
2023-05-19T15:10:08.798Z,2.80
2023-05-19T15:12:36.947Z,3.20
2023-05-19T15:15:05.789Z,3.10
2023-05-19T15:17:33.995Z,2.80
2023-05-19T15:20:02.155Z,2.90
2023-05-19T15:22:30.284Z,3.00
2023-05-19T15:24:58.326Z,3.30
2023-05-19T15:27:26.706Z,3.00
2023-05-19T15:29:54.838Z,3.20
2023-05-19T15:32:23.042Z,3.50
2023-05-19T15:34:51.333Z,3.00
2023-05-19T15:37:19.463Z,3.30
2023-05-19T15:39:47.633Z,3.40
2023-05-19T15:42:15.739Z,3.20
2023-05-19T15:44:46.192Z,3.10
2023-05-19T15:49:42.399Z,2.90
2023-05-19T15:52:10.526Z,3.20
2023-05-19T15:54:38.737Z,3.50
2023-05-19T15:57:06.870Z,3.00
2023-05-19T15:59:35.032Z,3.60
2023-05-19T16:02:03.334Z,3.80
2023-05-19T16:04:31.610Z,3.20
2023-05-19T16:06:59.707Z,3.20
2023-05-19T16:09:27.967Z,3.80
2023-05-19T16:11:56.249Z,3.50
2023-05-19T16:14:24.723Z,3.60
2023-05-19T16:16:52.896Z,3.20
2023-05-19T16:19:21.394Z,3.20
2023-05-19T16:21:50.107Z,3.10
2023-05-19T16:24:18.281Z,3.20
2023-05-19T16:26:46.610Z,3.30
2023-05-19T16:29:14.772Z,3.60
2023-05-19T16:31:42.953Z,3.70
2023-05-19T16:34:11.318Z,3.70
2023-05-19T16:36:39.427Z,3.70
2023-05-19T16:39:07.555Z,3.20
2023-05-19T16:41:35.753Z,4.10
2023-05-19T16:44:03.841Z,3.30
2023-05-19T16:46:31.945Z,3.10
2023-05-19T16:49:00.165Z,3.20
2023-05-19T16:51:28.336Z,3.40
2023-05-19T16:53:56.504Z,3.70
2023-05-19T16:56:24.630Z,3.30
2023-05-19T16:58:54.763Z,3.30
2023-05-19T17:01:23.021Z,3.50
2023-05-19T17:03:51.572Z,4.00
2023-05-19T17:06:19.684Z,3.40
2023-05-19T17:08:47.814Z,5.20
2023-05-19T17:11:16.055Z,4.00
2023-05-19T17:13:46.477Z,3.50
2023-05-19T17:16:14.802Z,3.00
2023-05-19T17:18:43.935Z,3.70
2023-05-19T17:21:12.254Z,3.20
2023-05-19T17:23:40.383Z,3.30
2023-05-19T17:26:09.043Z,3.10
2023-05-19T17:28:37.162Z,3.40
2023-05-19T17:31:12.584Z,3.40
2023-05-19T17:33:40.898Z,3.30
2023-05-19T17:36:09.507Z,3.00
2023-05-19T17:38:40.633Z,2.80
2023-05-19T17:41:14.047Z,2.80
2023-05-19T17:43:42.827Z,2.90
2023-05-19T17:46:11.869Z,3.00
2023-05-19T17:48:40.137Z,3.30
2023-05-19T17:51:08.453Z,3.30
2023-05-19T17:53:37.079Z,2.80
2023-05-19T17:56:09.013Z,3.20
2023-05-19T17:58:37.534Z,2.90
2023-05-19T18:01:06.111Z,3.20
2023-05-19T18:03:34.876Z,3.30
2023-05-19T18:06:03.163Z,3.10
2023-05-19T18:08:32.496Z,2.90
2023-05-19T18:11:00.868Z,3.50
2023-05-19T18:13:29.104Z,3.00
2023-05-19T18:15:59.333Z,3.20
2023-05-19T18:18:29.582Z,3.00
2023-05-19T18:20:57.676Z,3.00
2023-05-19T18:23:25.857Z,3.20
2023-05-19T18:25:54.058Z,3.50
2023-05-19T18:28:24.039Z,3.30
2023-05-19T18:31:05.845Z,3.70
2023-05-19T18:33:33.993Z,3.50
2023-05-19T18:36:02.286Z,3.60
2023-05-19T18:38:30.476Z,4.20
2023-05-19T18:41:00.863Z,3.40
2023-05-19T18:43:30.288Z,3.00
2023-05-19T18:45:58.618Z,2.60
2023-05-19T18:48:27.541Z,3.40
2023-05-19T18:50:55.948Z,3.40
2023-05-19T18:53:24.454Z,3.80
2023-05-19T18:55:52.663Z,3.30
2023-05-19T18:58:20.836Z,4.50
2023-05-19T19:00:49.112Z,3.80
2023-05-19T19:03:17.736Z,3.90
2023-05-19T19:05:46.322Z,4.40
2023-05-19T19:08:14.452Z,3.70
2023-05-19T19:10:42.709Z,4.00
2023-05-19T19:13:10.890Z,4.10
2023-05-19T19:15:39.935Z,4.70
2023-05-19T19:18:08.586Z,4.20
2023-05-19T19:20:36.885Z,3.50
2023-05-19T19:23:06.838Z,3.50
2023-05-19T19:25:35.510Z,4.60
2023-05-19T19:28:03.890Z,4.80
2023-05-19T19:30:32.479Z,4.50
2023-05-19T19:33:00.949Z,4.10
2023-05-19T19:35:29.216Z,4.40
2023-05-19T19:37:58.750Z,4.40
2023-05-19T19:40:27.028Z,3.80
2023-05-19T19:42:55.465Z,4.20
2023-05-19T19:45:23.663Z,3.30
2023-05-19T19:47:52.825Z,3.90
2023-05-19T19:50:21.053Z,3.70
2023-05-19T19:52:49.317Z,3.70
2023-05-19T19:55:17.673Z,3.80
2023-05-19T19:57:47.340Z,4.10
2023-05-19T20:00:16.005Z,3.60
2023-05-19T20:03:02.814Z,3.50
2023-05-19T20:05:32.572Z,4.20
2023-05-19T20:08:00.821Z,3.70
2023-05-19T20:10:29.050Z,4.10
2023-05-19T20:12:59.057Z,4.10
2023-05-19T20:15:27.241Z,3.70
2023-05-19T20:17:55.346Z,4.00
2023-05-19T20:20:23.538Z,4.30
2023-05-19T20:22:51.646Z,4.30
2023-05-19T20:25:19.910Z,4.20
2023-05-19T20:27:48.038Z,3.90
2023-05-19T20:30:16.564Z,4.40
2023-05-19T20:32:46.724Z,4.70
2023-05-19T20:35:15.601Z,4.90
2023-05-19T20:37:43.683Z,5.10
2023-05-19T20:40:12.026Z,4.20
2023-05-19T20:42:41.098Z,4.30
2023-05-19T20:45:09.907Z,4.30
2023-05-19T20:47:38.859Z,4.40
2023-05-19T20:50:07.576Z,4.50
2023-05-19T20:52:36.697Z,4.30
2023-05-19T20:55:05.270Z,4.90
2023-05-19T20:57:33.589Z,4.10
2023-05-19T21:00:01.728Z,4.80
2023-05-19T21:02:29.929Z,4.60
2023-05-19T21:04:58.226Z,4.60
2023-05-19T21:07:26.498Z,4.20
2023-05-19T21:10:14.574Z,4.60
2023-05-19T21:12:42.840Z,5.00
2023-05-19T21:15:11.591Z,4.80
2023-05-19T21:17:39.710Z,4.80
2023-05-19T21:20:08.575Z,4.20
2023-05-19T21:22:36.715Z,4.90
2023-05-19T21:25:05.301Z,4.10
2023-05-19T21:27:35.621Z,4.90
2023-05-19T21:30:03.948Z,4.50
2023-05-19T21:32:32.265Z,4.90
2023-05-19T21:35:00.541Z,5.00
2023-05-19T21:37:28.677Z,4.80
2023-05-19T21:39:56.703Z,5.00
2023-05-19T21:42:24.883Z,4.40
2023-05-19T21:44:53.092Z,5.30
2023-05-19T21:47:21.157Z,5.30
2023-05-19T21:49:49.321Z,5.10
2023-05-19T21:52:19.072Z,4.80
2023-05-19T21:54:47.947Z,4.40
2023-05-19T21:57:16.079Z,4.80
2023-05-19T21:59:45.070Z,4.50
2023-05-19T22:02:13.270Z,4.70
2023-05-19T22:04:42.639Z,4.80
2023-05-19T22:07:11.000Z,4.40
2023-05-19T22:09:39.162Z,4.30
2023-05-19T22:12:07.962Z,4.50
2023-05-19T22:14:36.182Z,4.30
2023-05-19T22:17:04.471Z,4.30
2023-05-19T22:19:32.629Z,4.70
2023-05-19T22:22:12.659Z,4.50
2023-05-19T22:24:42.310Z,5.00
2023-05-19T22:27:10.366Z,5.50
2023-05-19T22:29:41.511Z,5.10
2023-05-19T22:32:12.159Z,5.50
2023-05-19T22:34:40.635Z,5.20
2023-05-19T22:37:08.853Z,5.80
2023-05-19T22:39:37.026Z,5.00
2023-05-19T22:42:05.604Z,4.80
2023-05-19T22:44:33.745Z,5.00
2023-05-19T22:47:02.042Z,5.00
2023-05-19T22:49:30.214Z,5.30
2023-05-19T22:51:58.393Z,4.60
2023-05-19T22:54:26.468Z,5.10
2023-05-19T22:56:54.565Z,5.60
2023-05-19T22:59:22.626Z,5.50
2023-05-19T23:01:50.894Z,4.70
2023-05-19T23:04:19.008Z,4.70
2023-05-19T23:06:47.400Z,4.30
2023-05-19T23:09:16.116Z,4.90
2023-05-19T23:11:45.272Z,4.70
2023-05-19T23:14:13.713Z,5.10
2023-05-19T23:16:41.918Z,5.20
2023-05-19T23:19:10.115Z,5.00
2023-05-19T23:21:38.282Z,4.50
2023-05-19T23:24:06.780Z,4.80
2023-05-19T23:26:34.867Z,5.70
2023-05-19T23:29:02.992Z,4.60
2023-05-19T23:31:31.133Z,5.10
2023-05-19T23:34:03.569Z,5.70
2023-05-19T23:36:31.721Z,5.00
2023-05-19T23:39:01.408Z,5.40
2023-05-19T23:41:29.628Z,4.70
2023-05-19T23:43:57.905Z,5.60
2023-05-19T23:46:26.196Z,4.80
2023-05-19T23:48:54.368Z,4.90
2023-05-19T23:51:22.521Z,5.00
2023-05-19T23:53:50.572Z,4.80
2023-05-19T23:56:18.688Z,5.40
2023-05-19T23:58:46.841Z,5.20
